createdAt,value
2024-02-20T00:02:02.157Z,8.90
2024-02-20T00:04:29.188Z,8.90
2024-02-20T00:06:56.005Z,8.90
2024-02-20T00:09:22.746Z,8.90
2024-02-20T00:11:49.427Z,8.90
2024-02-20T00:14:16.089Z,8.90
2024-02-20T00:16:42.928Z,8.90
2024-02-20T00:19:09.812Z,8.90
2024-02-20T00:21:36.543Z,8.90
2024-02-20T00:24:03.370Z,8.90
2024-02-20T00:26:30.067Z,8.90
2024-02-20T00:28:56.976Z,8.90
2024-02-20T00:31:23.670Z,8.90
2024-02-20T00:33:50.404Z,8.90
2024-02-20T00:36:17.165Z,8.90
2024-02-20T00:38:43.869Z,8.80
2024-02-20T00:41:10.517Z,8.80
2024-02-20T00:43:37.243Z,8.80
2024-02-20T00:46:04.501Z,8.80
2024-02-20T00:48:31.518Z,8.80
2024-02-20T00:50:58.857Z,8.80
2024-02-20T00:53:25.517Z,8.70
2024-02-20T00:55:52.202Z,8.70
2024-02-20T00:58:19.372Z,8.70
2024-02-20T01:00:46.205Z,8.70
2024-02-20T01:03:13.139Z,8.70
2024-02-20T01:05:39.902Z,8.70
2024-02-20T01:08:06.765Z,8.70
2024-02-20T01:10:33.969Z,8.70
2024-02-20T01:13:01.411Z,8.70
2024-02-20T01:15:28.237Z,8.70
2024-02-20T01:17:54.900Z,8.60
2024-02-20T01:20:21.533Z,8.60
2024-02-20T01:22:48.784Z,8.60
2024-02-20T01:25:15.520Z,8.60
2024-02-20T01:27:43.014Z,8.60
2024-02-20T01:30:09.820Z,8.60
2024-02-20T01:32:36.482Z,8.50
2024-02-20T01:35:04.942Z,8.50
2024-02-20T01:37:31.744Z,8.50
2024-02-20T01:39:58.424Z,8.50
2024-02-20T01:42:26.161Z,8.50
2024-02-20T01:44:52.836Z,8.50
2024-02-20T01:47:19.553Z,8.50
2024-02-20T01:49:47.579Z,8.40
2024-02-20T01:52:16.071Z,8.40
2024-02-20T01:54:43.120Z,8.40
2024-02-20T01:57:12.090Z,8.40
2024-02-20T01:59:38.951Z,8.40
2024-02-20T02:02:07.545Z,8.40
2024-02-20T02:04:34.660Z,8.40
2024-02-20T02:07:01.555Z,8.40
2024-02-20T02:09:28.256Z,8.40
2024-02-20T02:11:55.060Z,8.30
2024-02-20T02:14:21.734Z,8.40
2024-02-20T02:16:48.372Z,8.30
2024-02-20T02:19:15.269Z,8.30
2024-02-20T02:21:42.113Z,8.30
2024-02-20T02:24:10.317Z,8.30
2024-02-20T02:26:37.177Z,8.30
2024-02-20T02:29:03.975Z,8.40
2024-02-20T02:31:30.999Z,8.30
2024-02-20T02:33:57.812Z,8.30
2024-02-20T02:36:27.673Z,8.30
2024-02-20T02:38:54.525Z,8.30
2024-02-20T02:41:22.756Z,8.30
2024-02-20T02:43:51.783Z,8.30
2024-02-20T02:46:19.116Z,8.30
2024-02-20T02:48:45.973Z,8.40
2024-02-20T02:51:12.709Z,8.30
2024-02-20T02:53:40.977Z,8.30
2024-02-20T02:56:12.778Z,8.30
2024-02-20T02:58:40.041Z,8.30
2024-02-20T03:01:07.276Z,8.30
2024-02-20T03:03:34.621Z,8.30
2024-02-20T03:06:09.696Z,8.30
2024-02-20T03:08:39.429Z,8.40
2024-02-20T03:11:09.083Z,8.30
2024-02-20T03:13:36.070Z,8.30
2024-02-20T03:16:09.293Z,8.30
2024-02-20T03:18:39.283Z,8.30
2024-02-20T03:21:12.144Z,8.30
2024-02-20T03:23:38.824Z,8.30
2024-02-20T03:26:05.683Z,8.40
2024-02-20T03:28:32.724Z,8.30
2024-02-20T03:30:59.937Z,8.30
2024-02-20T03:33:30.203Z,8.30
2024-02-20T03:35:58.605Z,8.30
2024-02-20T03:38:25.706Z,8.30
2024-02-20T03:40:52.838Z,8.30
2024-02-20T03:43:19.628Z,8.30
2024-02-20T03:45:46.430Z,8.30
2024-02-20T03:48:13.428Z,8.30
2024-02-20T03:50:40.428Z,8.30
2024-02-20T03:53:08.247Z,8.30
2024-02-20T03:55:35.375Z,8.30
2024-02-20T03:58:02.442Z,8.30
2024-02-20T04:00:29.303Z,8.30
2024-02-20T04:02:58.007Z,8.30
2024-02-20T04:05:25.106Z,8.20
2024-02-20T04:07:51.904Z,8.20
2024-02-20T04:10:19.174Z,8.20
2024-02-20T04:12:46.211Z,8.20
2024-02-20T04:15:14.677Z,8.20
2024-02-20T04:17:41.693Z,8.20
2024-02-20T04:20:10.215Z,8.20
2024-02-20T04:22:38.671Z,8.20
2024-02-20T04:25:06.736Z,8.20
2024-02-20T04:27:33.944Z,8.20
2024-02-20T04:30:00.794Z,8.20
2024-02-20T04:32:27.486Z,8.20
2024-02-20T04:34:54.391Z,8.20
2024-02-20T04:37:21.935Z,8.10
2024-02-20T04:39:48.651Z,8.10
2024-02-20T04:42:15.390Z,8.10
2024-02-20T04:44:42.335Z,8.10
2024-02-20T04:47:09.007Z,8.10
2024-02-20T04:49:35.743Z,8.10
2024-02-20T04:52:02.514Z,8.10
2024-02-20T04:54:29.194Z,8.10
2024-02-20T04:56:56.723Z,8.10
2024-02-20T04:59:24.186Z,8.10
2024-02-20T05:01:51.833Z,8.10
2024-02-20T05:04:18.850Z,8.00
2024-02-20T05:06:46.440Z,8.00
2024-02-20T05:09:15.012Z,8.00
2024-02-20T05:11:42.653Z,8.00
2024-02-20T05:14:09.500Z,8.00
2024-02-20T05:16:36.228Z,8.00
2024-02-20T05:19:03.119Z,8.00
2024-02-20T05:21:29.944Z,7.90
2024-02-20T05:23:56.620Z,7.90
2024-02-20T05:26:23.384Z,7.90
2024-02-20T05:28:50.163Z,7.90
2024-02-20T05:31:30.596Z,7.90
2024-02-20T05:34:01.403Z,7.90
2024-02-20T05:36:32.518Z,7.90
2024-02-20T05:39:03.111Z,7.90
2024-02-20T05:41:30.900Z,7.80
2024-02-20T05:43:59.304Z,7.80
2024-02-20T05:46:27.927Z,7.80
2024-02-20T05:48:55.558Z,7.80
2024-02-20T05:51:24.470Z,7.80
2024-02-20T05:53:51.563Z,7.80
2024-02-20T05:56:18.995Z,7.80
2024-02-20T05:58:45.710Z,7.80
2024-02-20T06:01:12.841Z,7.80
2024-02-20T06:03:39.758Z,7.80
2024-02-20T06:06:07.960Z,7.80
2024-02-20T06:08:35.802Z,7.80
2024-02-20T06:11:02.788Z,7.80
2024-02-20T06:13:29.540Z,7.80
2024-02-20T06:15:56.209Z,7.80
2024-02-20T06:18:22.961Z,7.80
2024-02-20T06:20:50.376Z,7.80
2024-02-20T06:23:17.115Z,7.70
2024-02-20T06:25:44.869Z,7.70
2024-02-20T06:28:14.339Z,7.70
2024-02-20T06:30:42.295Z,7.70
2024-02-20T06:33:09.035Z,7.70
2024-02-20T06:35:35.753Z,7.70
2024-02-20T06:38:02.394Z,7.60
2024-02-20T06:40:29.736Z,7.70
2024-02-20T06:42:56.758Z,7.60
2024-02-20T06:45:23.566Z,7.60
2024-02-20T06:47:50.310Z,7.60
2024-02-20T06:50:17.738Z,7.60
2024-02-20T06:52:44.820Z,7.60
2024-02-20T06:55:11.813Z,7.60
2024-02-20T06:57:40.954Z,7.60
2024-02-20T07:00:13.111Z,7.60
2024-02-20T07:02:41.881Z,7.60
2024-02-20T07:05:09.607Z,7.60
2024-02-20T07:07:36.482Z,7.60
2024-02-20T07:10:05.117Z,7.60
2024-02-20T07:12:31.918Z,7.60
2024-02-20T07:14:58.617Z,7.60
2024-02-20T07:17:26.835Z,7.60
2024-02-20T07:19:56.046Z,7.60
2024-02-20T07:22:23.287Z,7.60
2024-02-20T07:24:49.970Z,7.60
2024-02-20T07:27:16.596Z,7.60
2024-02-20T07:29:43.737Z,7.70
2024-02-20T07:32:11.614Z,7.70
2024-02-20T07:34:42.300Z,7.80
2024-02-20T07:37:09.330Z,7.70
2024-02-20T07:39:37.762Z,7.80
2024-02-20T07:42:04.988Z,7.80
2024-02-20T07:44:31.611Z,7.80
2024-02-20T07:46:58.280Z,7.80
2024-02-20T07:49:25.031Z,7.80
2024-02-20T07:51:51.835Z,7.90
2024-02-20T07:54:18.576Z,7.90
2024-02-20T07:56:46.962Z,7.90
2024-02-20T07:59:14.111Z,7.90
2024-02-20T08:01:41.145Z,8.00
2024-02-20T08:04:08.042Z,8.10
2024-02-20T08:06:34.908Z,8.10
2024-02-20T08:09:01.769Z,8.10
2024-02-20T08:11:28.996Z,8.20
2024-02-20T08:13:55.770Z,8.30
2024-02-20T08:16:22.596Z,8.30
2024-02-20T08:18:49.602Z,8.30
2024-02-20T08:21:16.374Z,8.30
2024-02-20T08:23:45.882Z,8.30
2024-02-20T08:26:13.298Z,8.30
2024-02-20T08:28:42.953Z,8.30
2024-02-20T08:31:10.577Z,8.30
2024-02-20T08:33:37.644Z,8.30
2024-02-20T08:36:05.217Z,8.40
2024-02-20T08:38:31.874Z,8.40
2024-02-20T08:40:58.609Z,8.30
2024-02-20T08:43:25.507Z,8.40
2024-02-20T08:45:52.238Z,8.40
2024-02-20T08:48:19.036Z,8.40
2024-02-20T08:50:45.902Z,8.40
2024-02-20T08:53:12.677Z,8.50
2024-02-20T08:55:40.529Z,8.50
2024-02-20T08:58:07.612Z,8.50
2024-02-20T09:00:34.556Z,8.50
2024-02-20T09:03:01.283Z,8.50
2024-02-20T09:05:28.099Z,8.50
2024-02-20T09:07:54.975Z,8.50
2024-02-20T09:10:21.786Z,8.60
2024-02-20T09:12:48.409Z,8.60
2024-02-20T09:15:15.126Z,8.60
2024-02-20T09:17:41.853Z,8.70
2024-02-20T09:20:11.447Z,8.70
2024-02-20T09:22:39.866Z,8.70
2024-02-20T09:25:09.804Z,8.80
2024-02-20T09:27:43.501Z,8.80
2024-02-20T09:30:11.900Z,8.80
2024-02-20T09:32:41.100Z,8.90
2024-02-20T09:35:09.155Z,8.90
2024-02-20T09:37:35.936Z,8.90
2024-02-20T09:40:05.538Z,8.90
2024-02-20T09:42:43.130Z,9.00
2024-02-20T09:45:18.226Z,9.00
2024-02-20T09:47:48.524Z,9.10
2024-02-20T09:50:21.408Z,9.10
2024-02-20T09:52:57.579Z,9.10
2024-02-20T09:55:25.802Z,9.20
2024-02-20T09:57:52.755Z,9.10
2024-02-20T10:00:20.538Z,9.10
2024-02-20T10:02:47.693Z,9.10
2024-02-20T10:05:18.922Z,9.10
2024-02-20T10:07:46.505Z,9.10
2024-02-20T10:10:17.428Z,9.10
2024-02-20T10:12:45.870Z,9.10
2024-02-20T10:15:16.526Z,9.10
2024-02-20T10:17:43.514Z,9.20
2024-02-20T10:20:12.443Z,9.20
2024-02-20T10:22:42.370Z,9.20
2024-02-20T10:25:13.525Z,9.30
2024-02-20T10:27:41.597Z,9.30
2024-02-20T10:30:09.165Z,9.30
2024-02-20T10:32:37.468Z,9.30
2024-02-20T10:35:06.800Z,9.40
2024-02-20T10:37:33.656Z,9.40
2024-02-20T10:40:17.819Z,9.50
2024-02-20T10:42:56.620Z,9.50
2024-02-20T10:45:24.321Z,9.60
2024-02-20T10:47:53.819Z,9.60
2024-02-20T10:50:21.550Z,9.60
2024-02-20T10:52:51.726Z,9.70
2024-02-20T10:55:27.773Z,9.70
2024-02-20T10:58:02.194Z,9.80
2024-02-20T11:00:32.912Z,9.90
2024-02-20T11:03:00.994Z,9.90
2024-02-20T11:05:31.283Z,9.90
2024-02-20T11:08:07.475Z,9.80
2024-02-20T11:10:36.637Z,9.90
2024-02-20T11:13:23.101Z,9.80
2024-02-20T11:15:51.181Z,9.80
2024-02-20T11:18:20.200Z,9.80
2024-02-20T11:21:09.043Z,9.90
2024-02-20T11:23:38.526Z,9.90
2024-02-20T11:26:07.796Z,9.90
2024-02-20T11:28:35.712Z,10.00
2024-02-20T11:31:04.246Z,10.00
2024-02-20T11:33:32.471Z,10.00
2024-02-20T11:36:02.094Z,10.00
2024-02-20T11:38:28.855Z,9.90
2024-02-20T11:40:57.207Z,10.00
2024-02-20T11:43:26.919Z,10.00
2024-02-20T11:46:00.832Z,10.00
2024-02-20T11:48:27.742Z,10.00
2024-02-20T11:50:58.301Z,10.00
2024-02-20T11:53:25.423Z,10.00
2024-02-20T11:55:53.294Z,10.00
2024-02-20T11:58:26.507Z,10.00
2024-02-20T12:00:56.229Z,10.00
2024-02-20T12:03:31.709Z,10.00
2024-02-20T12:06:07.294Z,10.10
2024-02-20T12:08:46.360Z,10.10
2024-02-20T12:11:23.346Z,10.10
2024-02-20T12:13:54.305Z,10.10
2024-02-20T12:16:28.422Z,10.10
2024-02-20T12:19:03.040Z,10.10
2024-02-20T12:21:34.834Z,10.10
2024-02-20T12:24:04.186Z,10.10
2024-02-20T12:26:30.914Z,10.10
2024-02-20T12:28:59.130Z,10.10
2024-02-20T12:31:27.679Z,10.00
2024-02-20T12:33:54.907Z,10.00
2024-02-20T12:36:22.200Z,10.00
2024-02-20T12:38:48.877Z,10.00
2024-02-20T12:41:15.615Z,9.90
2024-02-20T12:43:42.584Z,9.90
2024-02-20T12:46:09.527Z,9.90
2024-02-20T12:48:36.428Z,9.90
2024-02-20T12:51:03.397Z,10.00
2024-02-20T12:53:30.173Z,10.00
2024-02-20T12:55:57.831Z,10.00
2024-02-20T12:58:27.546Z,10.00
2024-02-20T13:00:54.262Z,10.00
2024-02-20T13:03:20.928Z,10.00
2024-02-20T13:05:47.869Z,10.00
2024-02-20T13:08:14.629Z,10.00
2024-02-20T13:10:42.536Z,10.00
2024-02-20T13:13:11.031Z,10.10
2024-02-20T13:15:37.933Z,10.10
2024-02-20T13:18:04.787Z,10.10
2024-02-20T13:20:32.669Z,10.10
2024-02-20T13:23:00.120Z,10.10
2024-02-20T13:25:26.941Z,10.10
2024-02-20T13:27:53.843Z,10.10
2024-02-20T13:30:20.785Z,10.10
2024-02-20T13:32:47.816Z,10.00
2024-02-20T13:35:19.883Z,10.00
2024-02-20T13:37:50.028Z,10.00
2024-02-20T13:40:18.737Z,10.00
2024-02-20T13:42:45.869Z,10.00
2024-02-20T13:45:12.604Z,10.00
2024-02-20T13:47:39.335Z,10.00
2024-02-20T13:50:06.673Z,10.00
2024-02-20T13:52:33.713Z,10.00
2024-02-20T13:55:00.596Z,9.90
2024-02-20T13:57:27.468Z,9.90
2024-02-20T13:59:54.146Z,9.90
2024-02-20T14:02:21.070Z,9.90
2024-02-20T14:04:48.385Z,9.90
2024-02-20T14:07:15.708Z,9.90
2024-02-20T14:09:42.661Z,9.80
2024-02-20T14:12:09.875Z,9.80
2024-02-20T14:14:36.569Z,9.80
2024-02-20T14:17:03.367Z,9.80
2024-02-20T14:19:30.755Z,9.80
2024-02-20T14:21:57.556Z,9.80
2024-02-20T14:24:24.377Z,9.80
2024-02-20T14:26:53.288Z,9.80
2024-02-20T14:29:21.673Z,9.80
2024-02-20T14:31:49.018Z,9.80
2024-02-20T14:34:16.619Z,9.80
2024-02-20T14:36:43.837Z,9.80
2024-02-20T14:39:10.658Z,9.80
2024-02-20T14:41:37.312Z,9.80
2024-02-20T14:44:04.157Z,9.80
2024-02-20T14:46:31.404Z,9.80
2024-02-20T14:48:58.330Z,9.80
2024-02-20T14:51:24.989Z,9.80
2024-02-20T14:53:51.893Z,9.80
2024-02-20T14:56:18.548Z,9.80
2024-02-20T14:58:45.271Z,9.80
2024-02-20T15:01:12.221Z,9.80
2024-02-20T15:03:38.990Z,9.80
2024-02-20T15:06:07.421Z,9.80
2024-02-20T15:08:34.718Z,9.80
2024-02-20T15:11:02.268Z,9.80
2024-02-20T15:13:31.493Z,9.80
2024-02-20T15:15:58.576Z,9.90
2024-02-20T15:18:29.140Z,9.90
2024-02-20T15:20:56.290Z,9.90
2024-02-20T15:23:23.147Z,9.90
2024-02-20T15:25:50.423Z,9.90
2024-02-20T15:28:17.598Z,9.90
2024-02-20T15:30:44.391Z,9.90
2024-02-20T15:33:11.255Z,9.90
2024-02-20T15:35:38.133Z,9.90
2024-02-20T15:38:05.208Z,9.90
2024-02-20T15:40:36.446Z,9.90
2024-02-20T15:43:03.172Z,9.90
2024-02-20T15:45:29.908Z,9.90
2024-02-20T15:47:58.175Z,9.90
2024-02-20T15:50:25.078Z,9.90
2024-02-20T15:52:52.007Z,9.90
2024-02-20T15:55:19.808Z,9.90
2024-02-20T15:57:47.792Z,9.90
2024-02-20T16:00:14.956Z,9.90
2024-02-20T16:02:41.680Z,9.90
2024-02-20T16:05:10.239Z,9.90
2024-02-20T16:07:37.255Z,9.90
2024-02-20T16:10:04.533Z,9.80
2024-02-20T16:12:31.373Z,9.80
2024-02-20T16:15:01.063Z,9.80
2024-02-20T16:17:28.696Z,9.80
2024-02-20T16:19:57.409Z,9.90
2024-02-20T16:22:24.155Z,9.80
2024-02-20T16:24:50.873Z,9.70
2024-02-20T16:27:17.760Z,9.70
2024-02-20T16:29:46.780Z,9.80
2024-02-20T16:32:13.563Z,9.70
2024-02-20T16:34:40.462Z,9.70
2024-02-20T16:37:07.428Z,9.70
2024-02-20T16:39:35.414Z,9.70
2024-02-20T16:42:02.177Z,9.70
2024-02-20T16:44:28.914Z,9.70
2024-02-20T16:46:55.860Z,9.70
2024-02-20T16:49:22.667Z,9.70
2024-02-20T16:51:49.422Z,9.70
2024-02-20T16:54:16.088Z,9.70
2024-02-20T16:56:42.840Z,9.70
2024-02-20T16:59:09.555Z,9.70
2024-02-20T17:01:36.293Z,9.60
2024-02-20T17:04:03.018Z,9.60
2024-02-20T17:06:29.844Z,9.60
2024-02-20T17:08:58.512Z,9.50
2024-02-20T17:11:25.333Z,9.60
2024-02-20T17:13:52.200Z,9.50
2024-02-20T17:16:19.176Z,9.50
2024-02-20T17:18:45.836Z,9.50
2024-02-20T17:21:14.382Z,9.50
2024-02-20T17:23:41.166Z,9.40
2024-02-20T17:26:08.680Z,9.50
2024-02-20T17:28:36.261Z,9.50
2024-02-20T17:31:05.185Z,9.50
2024-02-20T17:33:32.733Z,9.50
2024-02-20T17:36:02.084Z,9.50
2024-02-20T17:38:29.242Z,9.40
2024-02-20T17:40:56.213Z,9.50
2024-02-20T17:43:23.153Z,9.40
2024-02-20T17:45:50.024Z,9.50
2024-02-20T17:48:16.815Z,9.40
2024-02-20T17:50:43.846Z,9.40
2024-02-20T17:53:10.510Z,9.40
2024-02-20T17:55:37.161Z,9.40
2024-02-20T17:58:04.153Z,9.40
2024-02-20T18:00:31.763Z,9.40
2024-02-20T18:02:58.423Z,9.30
2024-02-20T18:05:25.090Z,9.40
2024-02-20T18:07:51.863Z,9.40
2024-02-20T18:10:18.694Z,9.40
2024-02-20T18:12:45.402Z,9.40
2024-02-20T18:15:12.117Z,9.40
2024-02-20T18:17:38.831Z,9.30
2024-02-20T18:20:08.759Z,9.30
2024-02-20T18:22:35.449Z,9.30
2024-02-20T18:25:02.176Z,9.30
2024-02-20T18:27:28.830Z,9.30
2024-02-20T18:29:55.436Z,9.20
2024-02-20T18:32:22.560Z,9.20
2024-02-20T18:34:49.436Z,9.20
2024-02-20T18:37:16.901Z,9.20
2024-02-20T18:39:50.181Z,9.20
2024-02-20T18:42:16.892Z,9.20
2024-02-20T18:44:43.603Z,9.20
2024-02-20T18:47:10.337Z,9.10
2024-02-20T18:49:37.229Z,9.10
2024-02-20T18:52:04.289Z,9.20
2024-02-20T18:54:32.594Z,9.10
2024-02-20T18:57:00.030Z,9.10
2024-02-20T18:59:27.000Z,9.10
2024-02-20T19:01:56.807Z,9.10
2024-02-20T19:04:24.322Z,9.00
2024-02-20T19:06:51.104Z,9.10
2024-02-20T19:09:17.995Z,9.00
2024-02-20T19:11:45.697Z,9.10
2024-02-20T19:14:16.126Z,9.00
2024-02-20T19:16:43.441Z,9.00
2024-02-20T19:19:10.963Z,9.00
2024-02-20T19:21:38.045Z,9.00
2024-02-20T19:24:05.351Z,9.00
2024-02-20T19:26:35.970Z,9.00
2024-02-20T19:29:03.023Z,9.00
2024-02-20T19:31:29.759Z,9.00
2024-02-20T19:33:56.508Z,8.90
2024-02-20T19:36:23.196Z,8.90
2024-02-20T19:38:49.926Z,8.90
2024-02-20T19:41:20.422Z,8.90
2024-02-20T19:43:49.002Z,8.90
2024-02-20T19:46:17.424Z,8.90
2024-02-20T19:48:45.750Z,8.90
2024-02-20T19:51:12.404Z,8.90
2024-02-20T19:53:39.144Z,8.90
2024-02-20T19:56:06.303Z,8.90
2024-02-20T19:58:34.875Z,8.90
2024-02-20T20:01:02.452Z,8.90
2024-02-20T20:03:30.225Z,8.90
2024-02-20T20:05:57.013Z,8.80
2024-02-20T20:08:24.249Z,8.90
2024-02-20T20:10:51.214Z,8.90
2024-02-20T20:13:18.614Z,8.80
2024-02-20T20:15:46.664Z,8.90
2024-02-20T20:18:14.306Z,8.80
2024-02-20T20:20:41.728Z,8.80
2024-02-20T20:23:08.557Z,8.80
2024-02-20T20:25:35.629Z,8.80
2024-02-20T20:28:02.706Z,8.80
2024-02-20T20:30:29.455Z,8.80
2024-02-20T20:32:56.302Z,8.70
2024-02-20T20:35:23.350Z,8.70
2024-02-20T20:37:53.715Z,8.70
2024-02-20T20:40:21.254Z,8.70
2024-02-20T20:42:49.308Z,8.70
2024-02-20T20:45:19.682Z,8.70
2024-02-20T20:47:46.343Z,8.70
2024-02-20T20:50:13.137Z,8.70
2024-02-20T20:52:39.924Z,8.70
2024-02-20T20:55:07.112Z,8.70
2024-02-20T20:57:33.876Z,8.70
2024-02-20T21:00:00.875Z,8.70
2024-02-20T21:02:27.609Z,8.70
2024-02-20T21:04:54.376Z,8.70
2024-02-20T21:07:21.152Z,8.70
2024-02-20T21:09:47.807Z,8.70
2024-02-20T21:12:14.493Z,8.70
2024-02-20T21:14:41.502Z,8.70
2024-02-20T21:17:08.874Z,8.70
2024-02-20T21:19:35.677Z,8.70
2024-02-20T21:22:02.535Z,8.70
2024-02-20T21:24:29.158Z,8.70
2024-02-20T21:26:55.862Z,8.70
2024-02-20T21:29:26.370Z,8.70
2024-02-20T21:31:53.120Z,8.80
2024-02-20T21:34:19.900Z,8.80
2024-02-20T21:36:47.179Z,8.70
2024-02-20T21:39:14.316Z,8.80
2024-02-20T21:41:41.124Z,8.70
2024-02-20T21:44:09.179Z,8.70
2024-02-20T21:46:35.854Z,8.70
2024-02-20T21:49:02.637Z,8.80
2024-02-20T21:51:29.981Z,8.70
2024-02-20T21:53:56.774Z,8.80
2024-02-20T21:56:23.480Z,8.80
2024-02-20T21:58:50.336Z,8.80
2024-02-20T22:01:17.203Z,8.80
2024-02-20T22:03:44.894Z,8.80
2024-02-20T22:06:11.680Z,8.80
2024-02-20T22:08:41.916Z,8.80
2024-02-20T22:11:08.916Z,8.80
2024-02-20T22:13:36.192Z,8.80
2024-02-20T22:16:02.908Z,8.80
2024-02-20T22:18:29.676Z,8.80
2024-02-20T22:20:56.559Z,8.90
2024-02-20T22:23:23.196Z,8.90
2024-02-20T22:25:49.914Z,8.90
2024-02-20T22:28:16.811Z,8.90
2024-02-20T22:30:43.568Z,8.90
2024-02-20T22:33:10.380Z,8.90
2024-02-20T22:35:37.126Z,8.90
2024-02-20T22:38:04.190Z,8.90
2024-02-20T22:40:31.551Z,8.90
2024-02-20T22:42:58.569Z,9.00
2024-02-20T22:45:25.292Z,8.90
2024-02-20T22:47:52.299Z,9.00
2024-02-20T22:50:19.283Z,9.00
2024-02-20T22:52:46.129Z,9.00
2024-02-20T22:55:12.838Z,9.00
2024-02-20T22:57:39.731Z,9.00
2024-02-20T23:00:09.461Z,8.90
2024-02-20T23:02:37.111Z,9.00
2024-02-20T23:05:04.447Z,9.00
2024-02-20T23:07:31.403Z,9.00
2024-02-20T23:09:58.143Z,8.90
2024-02-20T23:12:25.225Z,9.00
2024-02-20T23:14:52.031Z,8.90
2024-02-20T23:17:18.750Z,9.00
2024-02-20T23:19:45.453Z,9.00
2024-02-20T23:22:12.235Z,9.00
2024-02-20T23:24:38.878Z,9.00
2024-02-20T23:27:05.602Z,9.00
2024-02-20T23:29:32.270Z,9.00
2024-02-20T23:31:59.106Z,8.90
2024-02-20T23:34:26.038Z,9.00
2024-02-20T23:36:52.917Z,8.90
2024-02-20T23:39:19.553Z,9.00
2024-02-20T23:41:46.203Z,9.00
2024-02-20T23:44:12.930Z,9.00
2024-02-20T23:46:39.609Z,9.00
2024-02-20T23:49:06.461Z,9.00
2024-02-20T23:51:33.180Z,9.00
2024-02-20T23:54:00.808Z,9.00
2024-02-20T23:56:27.508Z,9.00
2024-02-20T23:58:54.559Z,9.00
